createdAt,value
2019-03-06T00:02:13.391Z,97785.33
2019-03-06T00:04:44.221Z,97800.66
2019-03-06T00:07:14.677Z,97804.96
2019-03-06T00:09:46.712Z,97822.38
2019-03-06T00:12:17.166Z,97810.12
2019-03-06T00:14:47.630Z,97808.88
2019-03-06T00:17:18.276Z,97814.32
2019-03-06T00:19:49.602Z,97818.05
2019-03-06T00:22:20.059Z,97822.16
2019-03-06T00:24:50.773Z,97822.16
2019-03-06T00:27:21.246Z,97824.61
2019-03-06T00:29:52.742Z,97827.29
2019-03-06T00:32:23.130Z,97828.13
2019-03-06T00:34:55.018Z,97827.80
2019-03-06T00:37:25.598Z,97824.10
2019-03-06T00:40:02.104Z,97826.97
2019-03-06T00:42:34.637Z,97830.87
2019-03-06T00:45:07.104Z,97818.50
2019-03-06T00:47:37.615Z,97821.60
2019-03-06T00:50:08.344Z,97822.53
2019-03-06T00:52:38.855Z,97826.45
2019-03-06T00:55:09.267Z,97826.95
2019-03-06T00:57:39.795Z,97839.84
2019-03-06T01:00:11.041Z,97833.05
2019-03-06T01:02:41.670Z,97836.84
2019-03-06T01:05:12.258Z,97834.99
2019-03-06T01:07:44.428Z,97830.47
2019-03-06T01:10:15.662Z,97830.69
2019-03-06T01:12:46.611Z,97839.73
2019-03-06T01:15:17.517Z,97837.98
2019-03-06T01:17:49.757Z,97843.86
2019-03-06T01:20:20.563Z,97835.83
2019-03-06T01:22:51.660Z,97833.97
2019-03-06T01:25:22.328Z,97839.84
2019-03-06T01:27:53.265Z,97844.87
2019-03-06T01:30:23.891Z,97843.75
2019-03-06T01:32:59.432Z,97846.94
2019-03-06T01:35:43.656Z,97861.77
2019-03-06T01:38:31.866Z,97855.49
2019-03-06T01:41:20.799Z,97861.36
2019-03-06T01:43:58.690Z,97862.50
2019-03-06T01:46:30.848Z,97860.43
2019-03-06T01:49:01.387Z,97859.41
2019-03-06T01:51:31.873Z,97853.59
2019-03-06T01:54:02.482Z,97856.59
2019-03-06T01:56:33.195Z,97855.56
2019-03-06T01:59:03.904Z,97876.77
2019-03-06T02:01:34.716Z,97853.48
2019-03-06T02:04:06.278Z,97865.55
2019-03-06T02:06:36.868Z,97864.43
2019-03-06T02:09:10.113Z,97863.61
2019-03-06T02:11:41.037Z,97871.92
2019-03-06T02:14:13.411Z,97874.14
2019-03-06T02:16:44.014Z,97885.28
2019-03-06T02:19:14.500Z,97894.53
2019-03-06T02:21:45.333Z,97891.76
2019-03-06T02:24:16.146Z,97899.09
2019-03-06T02:26:46.734Z,97904.55
2019-03-06T02:29:17.285Z,97912.49
2019-03-06T02:31:47.719Z,97916.19
2019-03-06T02:34:18.325Z,97917.25
2019-03-06T02:36:49.239Z,97926.58
2019-03-06T02:39:19.722Z,97927.09
2019-03-06T02:41:50.335Z,97919.98
2019-03-06T02:44:20.732Z,97935.34
2019-03-06T02:46:51.211Z,97933.69
2019-03-06T02:49:21.721Z,97931.75
2019-03-06T02:51:52.360Z,97946.89
2019-03-06T02:54:23.184Z,97954.11
2019-03-06T02:56:54.160Z,97948.02
2019-03-06T02:59:37.411Z,97947.82
2019-03-06T03:02:33.064Z,97961.41
2019-03-06T03:05:21.967Z,97968.73
2019-03-06T03:07:52.666Z,97968.00
2019-03-06T03:10:23.265Z,97971.20
2019-03-06T03:12:53.736Z,97975.44
2019-03-06T03:15:24.491Z,97972.53
2019-03-06T03:17:54.934Z,97998.08
2019-03-06T03:20:25.522Z,97981.72
2019-03-06T03:22:56.035Z,97996.14
2019-03-06T03:25:26.560Z,97993.23
2019-03-06T03:27:57.292Z,98014.38
2019-03-06T03:30:28.472Z,97997.06
2019-03-06T03:32:59.673Z,98005.70
2019-03-06T03:35:30.723Z,98017.25
2019-03-06T03:38:02.230Z,98033.52
2019-03-06T03:40:32.711Z,98022.92
2019-03-06T03:43:03.495Z,98025.89
2019-03-06T03:45:34.159Z,98026.72
2019-03-06T03:48:04.637Z,98029.63
2019-03-06T03:50:36.323Z,98033.42
2019-03-06T03:53:07.021Z,98037.44
2019-03-06T03:55:37.637Z,98042.70
2019-03-06T03:58:08.079Z,98042.48
2019-03-06T04:00:40.410Z,98041.97
2019-03-06T04:03:10.812Z,98043.31
2019-03-06T04:05:41.631Z,98050.33
2019-03-06T04:08:12.014Z,98051.67
2019-03-06T04:10:43.446Z,98058.27
2019-03-06T04:13:14.025Z,98055.39
2019-03-06T04:15:44.771Z,98059.09
2019-03-06T04:18:15.248Z,98068.47
2019-03-06T04:20:45.682Z,98064.64
2019-03-06T04:23:16.679Z,98064.64
2019-03-06T04:25:47.300Z,98065.59
2019-03-06T04:28:17.868Z,98075.38
2019-03-06T04:30:52.276Z,98077.63
2019-03-06T04:33:22.788Z,98093.00
2019-03-06T04:35:55.014Z,98086.61
2019-03-06T04:38:25.569Z,98098.34
2019-03-06T04:40:57.167Z,98101.84
2019-03-06T04:43:27.486Z,98098.84
2019-03-06T04:45:58.576Z,98101.74
2019-03-06T04:48:29.017Z,98102.66
2019-03-06T04:50:59.446Z,98112.22
2019-03-06T04:53:30.593Z,98108.52
2019-03-06T04:56:02.091Z,98117.67
2019-03-06T04:58:32.591Z,98118.91
2019-03-06T05:01:03.987Z,98117.57
2019-03-06T05:03:34.617Z,98122.31
2019-03-06T05:06:06.090Z,98127.16
2019-03-06T05:08:36.679Z,98127.14
2019-03-06T05:11:07.199Z,98136.00
2019-03-06T05:13:37.640Z,98137.94
2019-03-06T05:16:08.000Z,98134.88
2019-03-06T05:19:00.861Z,98134.88
2019-03-06T05:21:31.751Z,98151.80
2019-03-06T05:24:02.492Z,98149.41
2019-03-06T05:26:32.942Z,98148.03
2019-03-06T05:29:03.775Z,98157.36
2019-03-06T05:31:34.258Z,98160.55
2019-03-06T05:34:04.779Z,98163.83
2019-03-06T05:37:00.119Z,98156.99
2019-03-06T05:39:30.494Z,98174.59
2019-03-06T05:42:00.977Z,98168.36
2019-03-06T05:44:31.435Z,98167.75
2019-03-06T05:47:02.980Z,98178.33
2019-03-06T05:49:33.400Z,98177.11
2019-03-06T05:52:04.412Z,98173.27
2019-03-06T05:54:35.552Z,98178.62
2019-03-06T05:57:08.004Z,98173.33
2019-03-06T05:59:38.465Z,98182.02
2019-03-06T06:02:08.823Z,98186.86
2019-03-06T06:04:39.467Z,98186.86
2019-03-06T06:07:10.918Z,98189.72
2019-03-06T06:09:41.435Z,98203.41
2019-03-06T06:12:11.855Z,98198.24
2019-03-06T06:14:42.604Z,98194.88
2019-03-06T06:17:13.216Z,98195.50
2019-03-06T06:19:44.115Z,98198.62
2019-03-06T06:22:24.469Z,98202.75
2019-03-06T06:24:54.839Z,98210.37
2019-03-06T06:27:25.453Z,98212.84
2019-03-06T06:29:57.893Z,98217.52
2019-03-06T06:32:28.801Z,98224.97
2019-03-06T06:34:59.196Z,98230.22
2019-03-06T06:37:29.628Z,98230.16
2019-03-06T06:40:00.320Z,98237.35
2019-03-06T06:42:30.775Z,98247.20
2019-03-06T06:45:01.932Z,98256.08
2019-03-06T06:47:32.832Z,98252.17
2019-03-06T06:50:03.561Z,98256.12
2019-03-06T06:53:25.180Z,98265.71
2019-03-06T06:56:37.439Z,98261.41
2019-03-06T06:59:18.691Z,98264.23
2019-03-06T07:02:26.818Z,98273.76
2019-03-06T07:05:31.107Z,98272.56
2019-03-06T07:08:20.455Z,98275.23
2019-03-06T07:11:22.148Z,98278.89
2019-03-06T07:14:26.787Z,98283.15
2019-03-06T07:17:16.228Z,98278.24
2019-03-06T07:20:05.560Z,98281.23
2019-03-06T07:22:54.999Z,98281.14
2019-03-06T07:25:32.039Z,98280.96
2019-03-06T07:28:39.438Z,98283.35
2019-03-06T07:31:16.542Z,98285.92
2019-03-06T07:34:02.731Z,98281.91
2019-03-06T07:37:10.788Z,98289.65
2019-03-06T07:39:49.405Z,98286.23
2019-03-06T07:42:46.554Z,98297.59
2019-03-06T07:45:52.791Z,98300.38
2019-03-06T07:48:36.264Z,98298.81
2019-03-06T07:51:24.423Z,98306.53
2019-03-06T07:54:15.039Z,98302.37
2019-03-06T07:57:08.184Z,98299.69
2019-03-06T07:59:38.651Z,98308.58
2019-03-06T08:02:12.027Z,98320.75
2019-03-06T08:04:51.821Z,98329.33
2019-03-06T08:07:22.533Z,98321.45
2019-03-06T08:09:53.271Z,98308.92
2019-03-06T08:12:51.750Z,98318.00
2019-03-06T08:15:44.672Z,98312.95
2019-03-06T08:18:40.206Z,98318.94
2019-03-06T08:21:28.485Z,98318.94
2019-03-06T08:24:36.258Z,98330.89
2019-03-06T08:27:06.646Z,98320.22
2019-03-06T08:29:38.022Z,98322.64
2019-03-06T08:32:26.622Z,98330.71
2019-03-06T08:34:57.304Z,98326.23
2019-03-06T08:37:27.952Z,98326.88
2019-03-06T08:39:58.396Z,98316.89
2019-03-06T08:42:29.075Z,98329.91
2019-03-06T08:44:59.990Z,98324.10
2019-03-06T08:47:38.295Z,98327.30
2019-03-06T08:50:15.196Z,98327.71
2019-03-06T08:52:51.543Z,98316.43
2019-03-06T08:55:35.194Z,98316.43
2019-03-06T08:58:34.444Z,98333.99
2019-03-06T09:01:49.069Z,98317.41
2019-03-06T09:04:36.286Z,98343.91
2019-03-06T09:07:16.968Z,98344.80
2019-03-06T09:10:15.575Z,98325.21
2019-03-06T09:13:00.218Z,98339.85
2019-03-06T09:15:50.864Z,98336.05
2019-03-06T09:18:49.698Z,98327.34
2019-03-06T09:21:40.637Z,98348.45
2019-03-06T09:24:36.822Z,98337.80
2019-03-06T09:27:25.071Z,98346.31
2019-03-06T09:30:16.694Z,98335.42
2019-03-06T09:33:21.348Z,98338.75
2019-03-06T09:36:09.574Z,98357.40
2019-03-06T09:38:56.221Z,98356.69
2019-03-06T09:41:39.701Z,98360.20
2019-03-06T09:44:35.213Z,98359.41
2019-03-06T09:47:26.180Z,98352.45
2019-03-06T09:50:24.785Z,98350.78
2019-03-06T09:53:13.200Z,98351.72
2019-03-06T09:56:08.788Z,98349.36
2019-03-06T09:59:04.594Z,98350.59
2019-03-06T10:02:09.744Z,98363.46
2019-03-06T10:05:02.427Z,98352.63
2019-03-06T10:08:10.063Z,98356.75
2019-03-06T10:11:11.944Z,98371.27
2019-03-06T10:13:47.668Z,98387.88
2019-03-06T10:16:36.793Z,98368.34
2019-03-06T10:19:24.752Z,98363.94
2019-03-06T10:21:59.150Z,98363.25
2019-03-06T10:24:30.085Z,98371.48
2019-03-06T10:27:00.583Z,98360.99
2019-03-06T10:29:32.518Z,98366.33
2019-03-06T10:32:03.042Z,98374.17
2019-03-06T10:34:33.757Z,98363.37
2019-03-06T10:39:36.455Z,98381.38
2019-03-06T10:42:06.860Z,98382.06
2019-03-06T10:44:38.381Z,98370.70
2019-03-06T10:47:08.793Z,98372.16
2019-03-06T10:49:39.585Z,98374.61
2019-03-06T10:52:10.403Z,98386.63
2019-03-06T10:54:44.921Z,98389.39
2019-03-06T10:57:14.833Z,98389.39
2019-03-06T10:59:45.629Z,98384.61
2019-03-06T11:02:16.355Z,98388.80
2019-03-06T11:04:54.644Z,98382.42
2019-03-06T11:07:24.999Z,98374.73
2019-03-06T11:09:55.458Z,98385.48
2019-03-06T11:12:26.762Z,98376.67
2019-03-06T11:14:57.352Z,98371.11
2019-03-06T11:17:28.094Z,98366.53
2019-03-06T11:19:58.838Z,98363.66
2019-03-06T11:22:29.218Z,98357.48
2019-03-06T11:25:00.019Z,98346.31
2019-03-06T11:27:32.319Z,98354.36
2019-03-06T11:30:02.898Z,98359.52
2019-03-06T11:32:33.772Z,98352.88
2019-03-06T11:35:05.281Z,98370.16
2019-03-06T11:37:36.152Z,98363.53
2019-03-06T11:40:07.148Z,98357.04
2019-03-06T11:42:38.001Z,98343.31
2019-03-06T11:45:11.591Z,98342.20
2019-03-06T11:47:42.410Z,98340.76
2019-03-06T11:50:13.078Z,98339.69
2019-03-06T11:52:43.794Z,98337.20
2019-03-06T11:55:16.550Z,98340.37
2019-03-06T11:57:47.655Z,98340.59
2019-03-06T12:00:30.489Z,98334.18
2019-03-06T12:03:01.153Z,98335.95
2019-03-06T12:05:32.083Z,98335.20
2019-03-06T12:08:03.986Z,98331.42
2019-03-06T12:10:34.913Z,98326.55
2019-03-06T12:13:09.816Z,98328.22
2019-03-06T12:15:41.367Z,98330.52
2019-03-06T12:18:12.259Z,98321.12
2019-03-06T12:20:42.823Z,98321.17
2019-03-06T12:23:13.292Z,98316.20
2019-03-06T12:25:44.321Z,98308.07
2019-03-06T12:28:15.800Z,98306.80
2019-03-06T12:30:46.502Z,98291.97
2019-03-06T12:33:22.022Z,98296.79
2019-03-06T12:35:53.029Z,98294.06
2019-03-06T12:38:23.602Z,98296.57
2019-03-06T12:40:53.980Z,98286.85
2019-03-06T12:43:25.348Z,98280.74
2019-03-06T12:46:23.443Z,98287.23
2019-03-06T12:48:52.921Z,98295.81
2019-03-06T12:51:24.826Z,98287.82
2019-03-06T12:53:55.168Z,98282.66
2019-03-06T12:56:25.866Z,98278.96
2019-03-06T12:58:56.622Z,98284.33
2019-03-06T13:01:27.095Z,98293.80
2019-03-06T13:03:57.830Z,98284.73
2019-03-06T13:06:28.303Z,98284.01
2019-03-06T13:08:59.446Z,98275.22
2019-03-06T13:11:29.864Z,98277.89
2019-03-06T13:14:02.541Z,98262.91
2019-03-06T13:16:32.989Z,98257.97
2019-03-06T13:19:04.022Z,98261.25
2019-03-06T13:21:34.619Z,98258.08
2019-03-06T13:24:06.416Z,98252.36
2019-03-06T13:26:37.095Z,98250.06
2019-03-06T13:29:08.539Z,98240.25
2019-03-06T13:31:39.579Z,98244.16
2019-03-06T13:34:15.221Z,98247.45
2019-03-06T13:36:45.947Z,98244.50
2019-03-06T13:39:17.219Z,98237.98
2019-03-06T13:41:47.798Z,98233.30
2019-03-06T13:44:19.100Z,98235.25
2019-03-06T13:46:49.519Z,98227.05
2019-03-06T13:49:20.057Z,98224.55
2019-03-06T13:51:50.494Z,98222.69
2019-03-06T13:54:20.935Z,98216.87
2019-03-06T13:56:52.006Z,98213.67
2019-03-06T13:59:22.824Z,98209.34
2019-03-06T14:01:53.833Z,98216.97
2019-03-06T14:04:25.208Z,98218.88
2019-03-06T14:06:56.100Z,98213.08
2019-03-06T14:09:27.200Z,98203.98
2019-03-06T14:11:58.012Z,98201.52
2019-03-06T14:14:31.112Z,98198.52
2019-03-06T14:17:01.861Z,98200.17
2019-03-06T14:19:32.475Z,98205.44
2019-03-06T14:22:03.409Z,98196.97
2019-03-06T14:24:34.205Z,98188.52
2019-03-06T14:27:05.311Z,98189.10
2019-03-06T14:29:35.808Z,98187.95
2019-03-06T14:32:14.354Z,98180.58
2019-03-06T14:34:39.185Z,98173.78
2019-03-06T14:37:09.698Z,98173.30
2019-03-06T14:39:41.288Z,98164.95
2019-03-06T14:42:11.775Z,98151.03
2019-03-06T14:44:42.277Z,98149.70
2019-03-06T14:47:15.222Z,98162.15
2019-03-06T14:49:46.237Z,98150.33
2019-03-06T14:52:16.788Z,98151.81
2019-03-06T14:54:47.422Z,98149.47
2019-03-06T14:57:18.053Z,98142.38
2019-03-06T14:59:48.487Z,98142.48
2019-03-06T15:02:19.052Z,98143.28
2019-03-06T15:04:49.593Z,98137.00
2019-03-06T15:07:20.059Z,98141.52
2019-03-06T15:09:50.711Z,98137.69
2019-03-06T15:12:21.122Z,98139.02
2019-03-06T15:14:51.766Z,98138.24
2019-03-06T15:17:22.354Z,98134.38
2019-03-06T15:19:53.297Z,98130.19
2019-03-06T15:22:24.253Z,98133.78
2019-03-06T15:24:54.626Z,98132.10
2019-03-06T15:27:25.131Z,98131.34
2019-03-06T15:29:55.709Z,98126.41
2019-03-06T15:32:26.130Z,98131.60
2019-03-06T15:34:56.977Z,98125.34
2019-03-06T15:37:27.543Z,98125.34
2019-03-06T15:39:58.037Z,98113.57
2019-03-06T15:42:28.554Z,98118.53
2019-03-06T15:44:58.957Z,98110.59
2019-03-06T15:47:33.577Z,98112.53
2019-03-06T15:50:01.580Z,98104.91
2019-03-06T15:52:32.446Z,98107.32
2019-03-06T15:55:02.830Z,98103.25
2019-03-06T15:57:33.258Z,98096.73
2019-03-06T16:00:03.640Z,98102.17
2019-03-06T16:02:34.125Z,98101.91
2019-03-06T16:05:05.509Z,98095.05
2019-03-06T16:07:36.137Z,98091.50
2019-03-06T16:10:06.856Z,98091.06
2019-03-06T16:12:38.312Z,98089.14
2019-03-06T16:15:08.974Z,98084.27
2019-03-06T16:17:39.787Z,98076.02
2019-03-06T16:20:14.817Z,98078.32
2019-03-06T16:22:46.160Z,98079.13
2019-03-06T16:25:16.532Z,98072.50
2019-03-06T16:27:47.047Z,98068.88
2019-03-06T16:30:18.511Z,98062.53
2019-03-06T16:32:49.627Z,98058.69
2019-03-06T16:35:20.264Z,98057.47
2019-03-06T16:37:50.992Z,98058.11
2019-03-06T16:40:21.670Z,98057.77
2019-03-06T16:42:52.583Z,98058.74
2019-03-06T16:45:24.854Z,98054.58
2019-03-06T16:47:55.440Z,98054.62
2019-03-06T16:50:26.611Z,98050.16
2019-03-06T16:52:57.141Z,98050.73
2019-03-06T16:55:27.966Z,98041.89
2019-03-06T16:57:58.976Z,98044.80
2019-03-06T17:00:31.434Z,98046.84
2019-03-06T17:03:02.576Z,98048.23
2019-03-06T17:05:33.931Z,98052.99
2019-03-06T17:08:05.291Z,98050.52
2019-03-06T17:10:36.812Z,98049.84
2019-03-06T17:13:07.723Z,98058.22
2019-03-06T17:15:38.443Z,98055.14
2019-03-06T17:18:09.155Z,98051.86
2019-03-06T17:20:39.638Z,98057.72
2019-03-06T17:23:10.390Z,98063.31
2019-03-06T17:25:41.215Z,98062.89
2019-03-06T17:28:11.684Z,98053.99
2019-03-06T17:30:42.500Z,98046.77
2019-03-06T17:33:12.899Z,98051.52
2019-03-06T17:35:44.065Z,98052.22
2019-03-06T17:38:15.031Z,98043.24
2019-03-06T17:40:45.728Z,98036.53
2019-03-06T17:43:16.533Z,98035.13
2019-03-06T17:45:47.939Z,98036.78
2019-03-06T17:48:19.953Z,98039.48
2019-03-06T17:50:50.546Z,98034.47
2019-03-06T17:53:21.349Z,98032.81
2019-03-06T17:55:54.508Z,98034.07
2019-03-06T17:58:25.144Z,98031.84
2019-03-06T18:01:03.075Z,98026.34
2019-03-06T18:03:45.055Z,98023.25
2019-03-06T18:06:16.949Z,98016.06
2019-03-06T18:08:47.421Z,98012.31
2019-03-06T18:11:18.056Z,98009.98
2019-03-06T18:13:48.548Z,98003.48
2019-03-06T18:16:19.212Z,97991.52
2019-03-06T18:18:51.182Z,97996.34
2019-03-06T18:21:21.684Z,97989.97
2019-03-06T18:23:52.241Z,97989.97
2019-03-06T18:26:22.678Z,97975.91
2019-03-06T18:28:54.688Z,97968.33
2019-03-06T18:31:25.262Z,97964.86
2019-03-06T18:33:56.057Z,97957.41
2019-03-06T18:36:26.974Z,97957.61
2019-03-06T18:38:57.557Z,97961.77
2019-03-06T18:41:29.657Z,97958.85
2019-03-06T18:44:01.023Z,97962.48
2019-03-06T18:46:31.775Z,97958.24
2019-03-06T18:49:02.740Z,97961.34
2019-03-06T18:51:34.178Z,97960.05
2019-03-06T18:54:04.706Z,97958.31
2019-03-06T18:56:35.102Z,97953.80
2019-03-06T18:59:07.914Z,97951.25
2019-03-06T19:01:38.433Z,97944.56
2019-03-06T19:04:09.048Z,97942.52
2019-03-06T19:06:41.348Z,97931.59
2019-03-06T19:09:12.693Z,97931.72
2019-03-06T19:11:43.548Z,97925.53
2019-03-06T19:14:14.120Z,97921.00
2019-03-06T19:16:44.625Z,97930.97
2019-03-06T19:19:14.978Z,97921.42
2019-03-06T19:21:45.455Z,97925.03
2019-03-06T19:24:15.947Z,97918.75
2019-03-06T19:26:47.414Z,97915.41
2019-03-06T19:29:18.341Z,97919.78
2019-03-06T19:31:49.061Z,97915.37
2019-03-06T19:34:19.612Z,97906.09
2019-03-06T19:36:50.311Z,97899.75
2019-03-06T19:39:22.412Z,97904.94
2019-03-06T19:41:53.055Z,97906.43
2019-03-06T19:44:23.694Z,97909.29
2019-03-06T19:46:56.601Z,97907.78
2019-03-06T19:49:27.114Z,97895.81
2019-03-06T19:51:58.172Z,97905.30
2019-03-06T19:54:28.694Z,97906.06
2019-03-06T19:56:59.304Z,97907.16
2019-03-06T19:59:29.830Z,97910.68
2019-03-06T20:02:00.594Z,97925.47
2019-03-06T20:04:31.392Z,97925.85
2019-03-06T20:07:02.399Z,97914.78
2019-03-06T20:09:32.941Z,97919.81
2019-03-06T20:12:03.343Z,97911.06
2019-03-06T20:14:34.063Z,97903.44
2019-03-06T20:17:04.460Z,97900.47
2019-03-06T20:19:35.299Z,97905.23
2019-03-06T20:22:05.833Z,97895.55
2019-03-06T20:24:36.367Z,97905.23
2019-03-06T20:27:06.952Z,97897.17
2019-03-06T20:29:37.671Z,97892.62
2019-03-06T20:32:08.247Z,97896.95
2019-03-06T20:34:38.704Z,97899.58
2019-03-06T20:37:09.357Z,97903.75
2019-03-06T20:39:39.888Z,97901.88
2019-03-06T20:42:10.261Z,97900.16
2019-03-06T20:44:40.763Z,97904.19
2019-03-06T20:47:11.416Z,97906.22
2019-03-06T20:49:41.822Z,97901.56
2019-03-06T20:52:12.310Z,97895.75
2019-03-06T20:54:42.755Z,97891.13
2019-03-06T20:57:13.487Z,97887.78
2019-03-06T20:59:44.498Z,97888.15
2019-03-06T21:02:15.303Z,97877.22
2019-03-06T21:04:45.723Z,97877.22
2019-03-06T21:07:16.337Z,97883.73
2019-03-06T21:09:47.011Z,97873.87
2019-03-06T21:12:17.416Z,97866.56
2019-03-06T21:14:47.807Z,97874.55
2019-03-06T21:17:18.294Z,97868.36
2019-03-06T21:19:49.146Z,97870.97
2019-03-06T21:22:19.773Z,97862.08
2019-03-06T21:24:50.539Z,97866.55
2019-03-06T21:27:21.511Z,97863.62
2019-03-06T21:29:52.271Z,97869.83
2019-03-06T21:32:23.791Z,97858.50
2019-03-06T21:34:54.325Z,97849.16
2019-03-06T21:37:25.103Z,97849.16
2019-03-06T21:39:56.583Z,97850.44
2019-03-06T21:42:27.082Z,97839.31
2019-03-06T21:44:57.764Z,97838.92
2019-03-06T21:47:28.397Z,97836.75
2019-03-06T21:49:58.992Z,97834.30
2019-03-06T21:52:29.499Z,97829.52
2019-03-06T21:55:00.031Z,97830.66
2019-03-06T21:57:30.562Z,97825.49
2019-03-06T22:00:01.879Z,97824.98
2019-03-06T22:02:34.219Z,97823.88
2019-03-06T22:05:04.749Z,97817.95
2019-03-06T22:07:35.242Z,97816.09
2019-03-06T22:10:06.457Z,97819.53
2019-03-06T22:12:36.974Z,97816.47
2019-03-06T22:15:08.974Z,97813.84
2019-03-06T22:17:39.434Z,97811.46
2019-03-06T22:20:11.188Z,97809.36
2019-03-06T22:22:41.630Z,97803.09
2019-03-06T22:25:13.019Z,97804.16
2019-03-06T22:27:43.744Z,97798.48
2019-03-06T22:30:16.535Z,97794.89
2019-03-06T22:32:46.925Z,97791.93
2019-03-06T22:35:17.429Z,97786.17
2019-03-06T22:37:48.052Z,97786.17
2019-03-06T22:40:21.179Z,97787.52
2019-03-06T22:42:51.576Z,97789.69
2019-03-06T22:45:22.194Z,97778.56
2019-03-06T22:47:52.874Z,97776.08
2019-03-06T22:50:23.565Z,97768.70
2019-03-06T22:52:54.746Z,97773.84
2019-03-06T22:55:25.578Z,97765.27
2019-03-06T22:57:58.057Z,97761.17
2019-03-06T23:00:52.072Z,97755.21
2019-03-06T23:03:25.089Z,97759.52
2019-03-06T23:05:55.718Z,97745.30
2019-03-06T23:08:26.419Z,97742.82
2019-03-06T23:10:57.384Z,97736.80
2019-03-06T23:13:27.998Z,97727.98
2019-03-06T23:15:58.934Z,97721.79
2019-03-06T23:18:29.562Z,97720.96
2019-03-06T23:21:00.288Z,97716.86
2019-03-06T23:23:30.925Z,97723.88
2019-03-06T23:26:01.660Z,97710.08
2019-03-06T23:28:32.423Z,97707.39
2019-03-06T23:31:03.136Z,97698.23
2019-03-06T23:33:34.412Z,97694.14
2019-03-06T23:36:06.187Z,97691.91
2019-03-06T23:38:36.839Z,97688.91
2019-03-06T23:41:07.577Z,97678.03
2019-03-06T23:43:38.380Z,97673.94
2019-03-06T23:46:08.820Z,97665.94
2019-03-06T23:48:39.467Z,97666.08
2019-03-06T23:51:16.236Z,97667.21
2019-03-06T23:53:56.462Z,97660.78
2019-03-06T23:56:26.977Z,97654.97
2019-03-06T23:58:57.353Z,97651.77
